createdAt,value
2019-01-17T00:00:06.077Z,74.30
2019-01-17T00:01:08.326Z,74.40
2019-01-17T00:02:05.521Z,74.40
2019-01-17T00:03:08.348Z,74.70
2019-01-17T00:04:05.533Z,74.70
2019-01-17T00:05:08.457Z,74.80
2019-01-17T00:06:08.090Z,74.90
2019-01-17T00:07:08.275Z,74.90
2019-01-17T00:08:05.597Z,75.00
2019-01-17T00:09:05.763Z,75.00
2019-01-17T00:10:05.809Z,75.00
2019-01-17T00:11:08.433Z,75.20
2019-01-17T00:12:08.069Z,75.10
2019-01-17T00:13:06.010Z,75.10
2019-01-17T00:14:08.112Z,75.10
2019-01-17T00:15:08.119Z,75.20
2019-01-17T00:16:05.413Z,75.20
2019-01-17T00:17:05.556Z,75.20
2019-01-17T00:18:05.920Z,75.10
2019-01-17T00:19:07.978Z,75.00
2019-01-17T00:20:08.523Z,75.10
2019-01-17T00:21:05.752Z,75.10
2019-01-17T00:22:08.471Z,75.00
2019-01-17T00:23:08.416Z,75.00
2019-01-17T00:24:08.066Z,75.00
2019-01-17T00:25:05.178Z,75.00
2019-01-17T00:26:08.092Z,75.00
2019-01-17T00:27:05.277Z,75.00
2019-01-17T00:28:10.676Z,75.00
2019-01-17T00:29:06.507Z,75.00
2019-01-17T00:30:05.596Z,75.10
2019-01-17T00:31:05.642Z,75.10
2019-01-17T00:32:05.840Z,75.10
2019-01-17T00:33:05.899Z,75.00
2019-01-17T00:34:06.070Z,75.00
2019-01-17T00:35:12.946Z,75.10
2019-01-17T00:36:05.807Z,75.10
2019-01-17T00:37:05.850Z,75.20
2019-01-17T00:38:08.536Z,75.20
2019-01-17T00:39:05.675Z,75.20
2019-01-17T00:40:05.791Z,75.30
2019-01-17T00:41:08.472Z,75.50
2019-01-17T00:42:05.958Z,75.40
2019-01-17T00:43:05.906Z,75.40
2019-01-17T00:44:05.965Z,75.40
2019-01-17T00:45:05.499Z,75.50
2019-01-17T00:46:08.419Z,75.50
2019-01-17T00:47:05.459Z,75.50
2019-01-17T00:48:05.666Z,75.50
2019-01-17T00:49:05.980Z,75.60
2019-01-17T00:50:05.255Z,75.60
2019-01-17T00:51:07.978Z,75.70
2019-01-17T00:52:05.889Z,75.70
2019-01-17T00:53:05.591Z,75.70
2019-01-17T00:54:09.514Z,75.80
2019-01-17T00:55:05.974Z,75.80
2019-01-17T00:56:05.393Z,75.90
2019-01-17T00:57:05.446Z,75.90
2019-01-17T00:58:08.152Z,76.40
2019-01-17T00:59:08.195Z,76.50
2019-01-17T01:00:05.454Z,76.40
2019-01-17T01:01:05.628Z,76.40
2019-01-17T01:02:05.984Z,76.60
2019-01-17T01:03:05.494Z,76.50
2019-01-17T01:04:05.778Z,76.70
2019-01-17T01:05:08.294Z,76.80
2019-01-17T01:06:08.040Z,76.90
2019-01-17T01:07:05.572Z,76.90
2019-01-17T01:08:08.240Z,77.10
2019-01-17T01:09:05.329Z,77.10
2019-01-17T01:10:05.703Z,77.10
2019-01-17T01:11:05.855Z,77.10
2019-01-17T01:12:05.935Z,77.10
2019-01-17T01:13:08.139Z,77.10
2019-01-17T01:14:05.436Z,77.20
2019-01-17T01:15:05.531Z,77.10
2019-01-17T01:16:05.776Z,77.20
2019-01-17T01:17:05.891Z,77.30
2019-01-17T01:18:06.076Z,77.30
2019-01-17T01:19:07.722Z,77.20
2019-01-17T01:20:05.843Z,77.20
2019-01-17T01:21:06.034Z,77.00
2019-01-17T01:22:05.347Z,77.00
2019-01-17T01:23:05.705Z,77.00
2019-01-17T01:24:05.872Z,77.00
2019-01-17T01:25:08.582Z,77.00
2019-01-17T01:26:05.793Z,77.10
2019-01-17T01:27:06.023Z,76.80
2019-01-17T01:28:08.065Z,76.90
2019-01-17T01:29:05.484Z,76.90
2019-01-17T01:30:05.946Z,76.80
2019-01-17T01:31:07.999Z,76.60
2019-01-17T01:32:05.941Z,76.60
2019-01-17T01:33:05.224Z,76.50
2019-01-17T01:34:05.427Z,76.50
2019-01-17T01:35:08.315Z,76.50
2019-01-17T01:36:05.391Z,76.50
2019-01-17T01:37:05.523Z,76.40
2019-01-17T01:38:05.583Z,76.40
2019-01-17T01:39:05.631Z,76.50
2019-01-17T01:40:05.718Z,76.50
2019-01-17T01:41:05.757Z,76.50
2019-01-17T01:42:08.342Z,76.60
2019-01-17T01:43:05.250Z,76.60
2019-01-17T01:44:05.269Z,76.50
2019-01-17T01:45:05.296Z,76.60
2019-01-17T01:46:07.962Z,76.50
2019-01-17T01:47:05.881Z,76.60
2019-01-17T01:48:05.988Z,76.50
2019-01-17T01:49:07.554Z,76.30
2019-01-17T01:50:10.509Z,76.30
2019-01-17T01:51:05.879Z,76.20
2019-01-17T01:52:05.990Z,76.10
2019-01-17T01:53:05.071Z,76.00
2019-01-17T01:54:07.729Z,76.00
2019-01-17T01:55:05.868Z,76.00
2019-01-17T01:56:06.043Z,75.90
2019-01-17T01:57:05.331Z,76.00
2019-01-17T01:58:08.015Z,76.00
2019-01-17T01:59:08.500Z,75.90
2019-01-17T02:00:05.390Z,76.00
2019-01-17T02:01:05.638Z,75.90
2019-01-17T02:02:05.757Z,76.00
2019-01-17T02:03:05.957Z,76.00
2019-01-17T02:04:07.724Z,75.90
2019-01-17T02:05:05.627Z,75.90
2019-01-17T02:06:08.202Z,75.90
2019-01-17T02:07:10.166Z,75.90
2019-01-17T02:08:05.371Z,76.00
2019-01-17T02:09:08.185Z,75.70
2019-01-17T02:10:05.489Z,75.70
2019-01-17T02:11:08.219Z,75.60
2019-01-17T02:12:07.608Z,75.50
2019-01-17T02:13:05.626Z,75.50
2019-01-17T02:14:05.157Z,75.50
2019-01-17T02:15:05.326Z,75.50
2019-01-17T02:16:05.546Z,75.50
2019-01-17T02:17:08.291Z,75.50
2019-01-17T02:18:05.221Z,75.60
2019-01-17T02:19:05.698Z,75.50
2019-01-17T02:20:05.872Z,75.50
2019-01-17T02:21:05.958Z,75.50
2019-01-17T02:22:05.131Z,75.60
2019-01-17T02:23:05.164Z,75.50
2019-01-17T02:24:05.169Z,75.60
2019-01-17T02:25:05.559Z,75.50
2019-01-17T02:26:05.936Z,75.50
2019-01-17T02:27:05.983Z,75.50
2019-01-17T02:28:10.244Z,75.50
2019-01-17T02:29:05.262Z,75.50
2019-01-17T02:30:05.364Z,75.50
2019-01-17T02:31:05.922Z,75.40
2019-01-17T02:32:06.004Z,75.30
2019-01-17T02:33:07.849Z,75.30
2019-01-17T02:34:05.910Z,75.30
2019-01-17T02:35:05.451Z,75.30
2019-01-17T02:36:08.448Z,75.40
2019-01-17T02:37:05.617Z,75.40
2019-01-17T02:38:10.800Z,75.40
2019-01-17T02:39:05.724Z,75.40
2019-01-17T02:40:05.819Z,75.20
2019-01-17T02:41:05.941Z,75.10
2019-01-17T02:42:08.088Z,75.00
2019-01-17T02:43:07.810Z,75.10
2019-01-17T02:44:08.512Z,75.00
2019-01-17T02:45:05.762Z,75.00
2019-01-17T02:46:05.828Z,75.00
2019-01-17T02:47:08.530Z,75.00
2019-01-17T02:48:08.064Z,75.30
2019-01-17T02:49:05.096Z,75.30
2019-01-17T02:50:08.293Z,75.20
2019-01-17T02:51:08.005Z,75.30
2019-01-17T02:52:08.485Z,75.40
2019-01-17T02:53:08.127Z,75.40
2019-01-17T02:54:10.243Z,75.50
2019-01-17T02:55:07.855Z,75.50
2019-01-17T02:56:05.839Z,75.50
2019-01-17T02:57:08.591Z,75.60
2019-01-17T02:58:08.252Z,75.60
2019-01-17T02:59:08.240Z,75.60
2019-01-17T03:00:05.459Z,75.60
2019-01-17T03:01:05.672Z,75.60
2019-01-17T03:02:06.101Z,75.60
2019-01-17T03:03:05.265Z,75.50
2019-01-17T03:04:05.472Z,75.50
2019-01-17T03:05:05.902Z,75.40
2019-01-17T03:06:05.334Z,75.50
2019-01-17T03:07:08.118Z,75.30
2019-01-17T03:08:05.435Z,75.30
2019-01-17T03:09:05.648Z,75.20
2019-01-17T03:10:08.298Z,75.10
2019-01-17T03:11:05.719Z,75.10
2019-01-17T03:12:08.402Z,75.30
2019-01-17T03:13:08.265Z,75.30
2019-01-17T03:14:05.560Z,75.30
2019-01-17T03:15:08.306Z,75.20
2019-01-17T03:16:05.815Z,75.20
2019-01-17T03:17:08.694Z,74.80
2019-01-17T03:18:05.905Z,74.70
2019-01-17T03:19:08.044Z,74.80
2019-01-17T03:20:08.568Z,74.70
2019-01-17T03:21:08.260Z,74.90
2019-01-17T03:22:05.474Z,75.00
2019-01-17T03:23:05.846Z,74.90
2019-01-17T03:24:05.885Z,75.00
2019-01-17T03:25:06.143Z,75.20
2019-01-17T03:26:05.484Z,75.40
2019-01-17T03:27:05.890Z,75.30
2019-01-17T03:28:08.809Z,75.90
2019-01-17T03:29:06.044Z,75.90
2019-01-17T03:30:05.569Z,75.40
2019-01-17T03:31:05.872Z,75.50
2019-01-17T03:32:11.236Z,75.50
2019-01-17T03:33:05.476Z,75.50
2019-01-17T03:34:05.891Z,75.60
2019-01-17T03:35:05.305Z,75.50
2019-01-17T03:36:08.197Z,75.60
2019-01-17T03:37:05.350Z,75.60
2019-01-17T03:38:08.220Z,75.80
2019-01-17T03:39:05.349Z,75.80
2019-01-17T03:40:05.665Z,75.80
2019-01-17T03:41:06.049Z,76.10
2019-01-17T03:42:05.438Z,75.90
2019-01-17T03:43:05.737Z,76.00
2019-01-17T03:44:06.015Z,76.00
2019-01-17T03:45:05.349Z,76.10
2019-01-17T03:46:05.854Z,76.10
2019-01-17T03:47:05.917Z,76.10
2019-01-17T03:48:06.165Z,76.10
2019-01-17T03:49:05.499Z,76.20
2019-01-17T03:50:13.690Z,76.10
2019-01-17T03:51:05.805Z,76.20
2019-01-17T03:52:05.983Z,76.10
2019-01-17T03:53:05.405Z,76.10
2019-01-17T03:54:05.799Z,76.10
2019-01-17T03:55:11.008Z,76.10
2019-01-17T03:56:06.138Z,76.10
2019-01-17T03:57:05.500Z,75.80
2019-01-17T03:58:08.630Z,76.00
2019-01-17T03:59:06.037Z,76.00
2019-01-17T04:00:05.557Z,75.90
2019-01-17T04:01:05.685Z,76.00
2019-01-17T04:02:06.041Z,76.20
2019-01-17T04:03:10.432Z,75.90
2019-01-17T04:04:05.846Z,75.90
2019-01-17T04:05:06.127Z,76.10
2019-01-17T04:06:05.552Z,76.10
2019-01-17T04:07:08.401Z,76.30
2019-01-17T04:08:05.741Z,76.30
2019-01-17T04:09:05.922Z,76.20
2019-01-17T04:10:10.609Z,76.50
2019-01-17T04:11:08.407Z,76.30
2019-01-17T04:12:05.398Z,76.50
2019-01-17T04:13:05.492Z,76.50
2019-01-17T04:14:05.491Z,76.50
2019-01-17T04:15:08.147Z,76.60
2019-01-17T04:16:05.096Z,76.60
2019-01-17T04:17:05.778Z,76.70
2019-01-17T04:18:08.381Z,76.70
2019-01-17T04:19:05.422Z,76.70
2019-01-17T04:20:08.249Z,76.80
2019-01-17T04:21:08.206Z,76.80
2019-01-17T04:22:05.448Z,76.80
2019-01-17T04:23:05.913Z,76.90
2019-01-17T04:24:06.184Z,77.00
2019-01-17T04:25:07.974Z,77.10
2019-01-17T04:26:08.675Z,76.70
2019-01-17T04:27:05.877Z,76.70
2019-01-17T04:28:11.238Z,77.00
2019-01-17T04:29:05.626Z,77.10
2019-01-17T04:30:05.165Z,77.10
2019-01-17T04:31:08.344Z,77.20
2019-01-17T04:32:08.022Z,77.20
2019-01-17T04:33:05.556Z,77.30
2019-01-17T04:34:05.935Z,77.30
2019-01-17T04:35:07.754Z,77.30
2019-01-17T04:36:05.945Z,77.30
2019-01-17T04:37:07.704Z,77.30
2019-01-17T04:38:05.743Z,77.40
2019-01-17T04:39:05.904Z,77.30
2019-01-17T04:40:10.223Z,77.50
2019-01-17T04:41:08.092Z,77.50
2019-01-17T04:42:05.423Z,77.50
2019-01-17T04:43:10.936Z,77.50
2019-01-17T04:44:05.937Z,77.50
2019-01-17T04:45:12.818Z,77.50
2019-01-17T04:46:08.564Z,77.50
2019-01-17T04:47:05.894Z,77.50
2019-01-17T04:48:06.093Z,77.40
2019-01-17T04:49:05.539Z,77.40
2019-01-17T04:50:05.980Z,77.30
2019-01-17T04:51:07.801Z,77.30
2019-01-17T04:52:06.075Z,77.40
2019-01-17T04:53:08.268Z,77.70
2019-01-17T04:54:05.629Z,77.70
2019-01-17T04:55:06.095Z,77.70
2019-01-17T04:56:05.524Z,77.70
2019-01-17T04:57:08.402Z,77.40
2019-01-17T04:58:05.681Z,77.50
2019-01-17T04:59:05.335Z,77.50
2019-01-17T05:00:08.688Z,77.60
2019-01-17T05:01:05.871Z,77.60
2019-01-17T05:02:08.591Z,78.30
2019-01-17T05:03:05.607Z,78.30
2019-01-17T05:04:08.465Z,77.80
2019-01-17T05:05:05.706Z,77.80
2019-01-17T05:06:08.591Z,77.80
2019-01-17T05:07:08.642Z,77.90
2019-01-17T05:08:05.776Z,77.90
2019-01-17T05:09:05.964Z,78.00
2019-01-17T05:10:07.738Z,78.20
2019-01-17T05:11:05.731Z,78.20
2019-01-17T05:12:05.883Z,78.20
2019-01-17T05:13:06.026Z,78.30
2019-01-17T05:14:08.146Z,78.40
2019-01-17T05:15:10.522Z,79.00
2019-01-17T05:16:08.156Z,79.00
2019-01-17T05:17:07.961Z,79.10
2019-01-17T05:18:05.998Z,79.10
2019-01-17T05:19:05.061Z,79.20
2019-01-17T05:20:07.628Z,79.30
2019-01-17T05:21:05.766Z,79.30
2019-01-17T05:22:08.510Z,79.00
2019-01-17T05:23:07.203Z,79.00
2019-01-17T05:24:07.854Z,79.10
2019-01-17T05:25:13.139Z,79.10
2019-01-17T05:26:05.177Z,79.10
2019-01-17T05:27:05.371Z,79.10
2019-01-17T05:28:07.727Z,79.20
2019-01-17T05:29:05.882Z,79.20
2019-01-17T05:30:05.120Z,79.30
2019-01-17T05:31:05.590Z,79.40
2019-01-17T05:32:05.640Z,79.50
2019-01-17T05:33:05.750Z,79.50
2019-01-17T05:34:05.865Z,79.40
2019-01-17T05:35:05.925Z,79.50
2019-01-17T05:36:05.002Z,79.60
2019-01-17T05:37:05.192Z,79.70
2019-01-17T05:38:05.690Z,79.70
2019-01-17T05:39:06.057Z,79.70
2019-01-17T05:40:05.521Z,79.80
2019-01-17T05:41:05.777Z,79.90
2019-01-17T05:42:05.859Z,80.00
2019-01-17T05:43:06.112Z,80.00
2019-01-17T05:44:05.305Z,80.00
2019-01-17T05:45:05.787Z,80.10
2019-01-17T05:46:08.559Z,80.30
2019-01-17T05:47:05.560Z,80.40
2019-01-17T05:48:06.118Z,80.40
2019-01-17T05:49:05.704Z,80.40
2019-01-17T05:50:05.835Z,80.30
2019-01-17T05:51:06.139Z,80.30
2019-01-17T05:52:07.928Z,80.20
2019-01-17T05:53:08.507Z,80.20
2019-01-17T05:54:05.566Z,80.20
2019-01-17T05:55:08.606Z,80.20
2019-01-17T05:56:08.239Z,80.20
2019-01-17T05:57:07.795Z,80.30
2019-01-17T05:58:05.794Z,80.30
2019-01-17T05:59:06.135Z,80.30
2019-01-17T06:00:05.394Z,80.90
2019-01-17T06:01:08.325Z,80.50
2019-01-17T06:02:08.363Z,80.40
2019-01-17T06:03:05.380Z,81.00
2019-01-17T06:04:05.755Z,81.00
2019-01-17T06:05:06.123Z,80.40
2019-01-17T06:06:07.911Z,80.40
2019-01-17T06:07:05.877Z,80.40
2019-01-17T06:08:08.775Z,80.50
2019-01-17T06:09:05.771Z,80.50
2019-01-17T06:10:06.029Z,80.50
2019-01-17T06:11:05.463Z,80.50
2019-01-17T06:12:08.036Z,80.50
2019-01-17T06:13:05.101Z,80.50
2019-01-17T06:14:07.901Z,80.60
2019-01-17T06:15:05.918Z,80.60
2019-01-17T06:16:05.925Z,80.60
2019-01-17T06:17:06.094Z,80.60
2019-01-17T06:18:05.466Z,80.70
2019-01-17T06:19:11.132Z,80.70
2019-01-17T06:20:05.254Z,80.70
2019-01-17T06:21:05.730Z,80.70
2019-01-17T06:22:08.540Z,80.80
2019-01-17T06:23:05.599Z,80.90
2019-01-17T06:24:05.720Z,80.90
2019-01-17T06:25:08.467Z,81.00
2019-01-17T06:26:08.368Z,81.00
2019-01-17T06:27:05.946Z,81.00
2019-01-17T06:28:07.759Z,81.00
2019-01-17T06:29:05.807Z,81.00
2019-01-17T06:30:08.232Z,81.10
2019-01-17T06:31:10.406Z,81.20
2019-01-17T06:32:05.832Z,81.20
2019-01-17T06:33:08.643Z,81.10
2019-01-17T06:34:08.353Z,81.10
2019-01-17T06:35:05.703Z,81.20
2019-01-17T06:36:08.560Z,81.20
2019-01-17T06:37:08.398Z,81.20
2019-01-17T06:38:05.639Z,81.20
2019-01-17T06:39:05.808Z,81.20
2019-01-17T06:40:06.091Z,81.20
2019-01-17T06:41:05.228Z,81.30
2019-01-17T06:42:08.162Z,81.30
2019-01-17T06:43:07.930Z,81.30
2019-01-17T06:44:06.018Z,81.30
2019-01-17T06:45:05.384Z,81.30
2019-01-17T06:46:05.780Z,81.30
2019-01-17T06:47:06.192Z,81.30
2019-01-17T06:48:05.468Z,81.40
2019-01-17T06:49:08.333Z,81.40
2019-01-17T06:50:08.065Z,81.40
2019-01-17T06:51:06.241Z,81.40
2019-01-17T06:52:05.579Z,81.40
2019-01-17T06:53:05.997Z,81.50
2019-01-17T06:54:08.711Z,81.40
2019-01-17T06:55:08.913Z,81.40
2019-01-17T06:56:08.782Z,81.60
2019-01-17T06:57:06.218Z,81.40
2019-01-17T06:58:08.183Z,81.60
2019-01-17T06:59:05.382Z,81.50
2019-01-17T07:00:05.903Z,81.50
2019-01-17T07:01:06.354Z,81.60
2019-01-17T07:02:08.221Z,81.50
2019-01-17T07:03:10.284Z,81.70
2019-01-17T07:04:05.515Z,81.60
2019-01-17T07:05:06.022Z,81.60
2019-01-17T07:06:05.401Z,81.60
2019-01-17T07:07:05.870Z,81.60
2019-01-17T07:08:06.068Z,81.60
2019-01-17T07:09:05.216Z,81.60
2019-01-17T07:10:05.459Z,81.80
2019-01-17T07:11:08.477Z,81.70
2019-01-17T07:12:05.643Z,81.70
2019-01-17T07:13:08.586Z,81.80
2019-01-17T07:14:05.812Z,81.80
2019-01-17T07:15:06.040Z,81.90
2019-01-17T07:16:05.185Z,81.90
2019-01-17T07:17:05.400Z,81.90
2019-01-17T07:18:08.284Z,82.00
2019-01-17T07:19:05.283Z,82.00
2019-01-17T07:20:05.549Z,81.90
2019-01-17T07:21:08.395Z,82.20
2019-01-17T07:22:08.126Z,82.20
2019-01-17T07:23:07.730Z,82.20
2019-01-17T07:24:08.407Z,82.20
2019-01-17T07:25:10.650Z,82.20
2019-01-17T07:26:08.561Z,82.30
2019-01-17T07:27:08.537Z,82.30
2019-01-17T07:28:05.778Z,82.30
2019-01-17T07:29:06.129Z,82.30
2019-01-17T07:30:07.947Z,82.30
2019-01-17T07:31:06.115Z,82.30
2019-01-17T07:32:05.596Z,82.30
2019-01-17T07:33:06.211Z,82.30
2019-01-17T07:34:05.421Z,82.30
2019-01-17T07:35:08.248Z,82.30
2019-01-17T07:36:05.347Z,82.30
2019-01-17T07:37:05.880Z,82.30
2019-01-17T07:38:06.115Z,82.40
2019-01-17T07:39:05.743Z,82.40
2019-01-17T07:40:05.327Z,82.50
2019-01-17T07:41:10.759Z,82.40
2019-01-17T07:42:11.088Z,82.40
2019-01-17T07:43:05.243Z,82.40
2019-01-17T07:44:05.613Z,82.40
2019-01-17T07:45:05.985Z,82.40
2019-01-17T07:46:07.708Z,82.50
2019-01-17T07:47:08.276Z,82.50
2019-01-17T07:48:08.940Z,82.60
2019-01-17T07:49:08.388Z,82.60
2019-01-17T07:50:10.833Z,82.60
2019-01-17T07:51:08.563Z,82.60
2019-01-17T07:52:05.725Z,82.60
2019-01-17T07:53:06.041Z,82.60
2019-01-17T07:54:05.618Z,82.70
2019-01-17T07:55:11.089Z,82.70
2019-01-17T07:56:05.472Z,82.70
2019-01-17T07:57:05.700Z,82.80
2019-01-17T07:58:05.852Z,82.70
2019-01-17T07:59:11.099Z,82.70
2019-01-17T08:00:05.290Z,82.70
2019-01-17T08:01:06.062Z,82.70
2019-01-17T08:02:05.373Z,82.70
2019-01-17T08:03:08.177Z,82.80
2019-01-17T08:04:07.817Z,82.90
2019-01-17T08:05:05.884Z,82.90
2019-01-17T08:06:06.044Z,82.90
2019-01-17T08:07:05.386Z,82.90
2019-01-17T08:08:08.288Z,82.90
2019-01-17T08:09:08.009Z,83.00
2019-01-17T08:10:08.697Z,83.00
2019-01-17T08:11:05.949Z,83.00
2019-01-17T08:12:05.589Z,83.00
2019-01-17T08:13:08.488Z,83.10
2019-01-17T08:14:05.635Z,83.00
2019-01-17T08:15:08.291Z,83.00
2019-01-17T08:16:05.442Z,83.00
2019-01-17T08:17:05.695Z,83.00
2019-01-17T08:18:05.931Z,83.00
2019-01-17T08:19:05.243Z,83.10
2019-01-17T08:20:05.441Z,83.10
2019-01-17T08:21:08.545Z,83.10
2019-01-17T08:22:05.855Z,83.20
2019-01-17T08:23:06.016Z,83.20
2019-01-17T08:24:07.994Z,83.20
2019-01-17T08:25:06.053Z,83.20
2019-01-17T08:26:05.334Z,83.30
2019-01-17T08:27:05.890Z,83.30
2019-01-17T08:28:05.387Z,83.40
2019-01-17T08:29:05.558Z,83.30
2019-01-17T08:30:05.412Z,83.30
2019-01-17T08:31:08.364Z,83.30
2019-01-17T08:32:05.603Z,83.30
2019-01-17T08:33:08.259Z,83.30
2019-01-17T08:34:05.570Z,83.30
2019-01-17T08:35:08.258Z,83.40
2019-01-17T08:36:05.377Z,83.40
2019-01-17T08:37:05.672Z,83.70
2019-01-17T08:38:05.838Z,83.30
2019-01-17T08:39:06.045Z,83.30
2019-01-17T08:40:08.059Z,83.40
2019-01-17T08:41:05.355Z,83.30
2019-01-17T08:42:05.754Z,83.40
2019-01-17T08:43:08.483Z,83.40
2019-01-17T08:44:05.852Z,83.40
2019-01-17T08:45:05.884Z,83.40
2019-01-17T08:46:06.168Z,83.50
2019-01-17T08:47:07.963Z,83.40
2019-01-17T08:48:08.847Z,83.60
2019-01-17T08:49:06.116Z,83.60
2019-01-17T08:50:10.497Z,83.50
2019-01-17T08:51:08.197Z,83.60
2019-01-17T08:52:05.285Z,83.60
2019-01-17T08:53:10.759Z,83.60
2019-01-17T08:54:05.885Z,83.60
2019-01-17T08:55:06.120Z,83.60
2019-01-17T08:56:05.539Z,83.60
2019-01-17T08:57:05.961Z,83.60
2019-01-17T08:58:05.728Z,83.60
2019-01-17T08:59:07.749Z,83.60
2019-01-17T09:00:11.176Z,83.60
2019-01-17T09:01:05.225Z,83.60
2019-01-17T09:02:05.616Z,83.50
2019-01-17T09:03:06.122Z,83.60
2019-01-17T09:04:07.868Z,83.60
2019-01-17T09:05:06.042Z,83.60
2019-01-17T09:06:08.118Z,83.60
2019-01-17T09:07:07.843Z,83.60
2019-01-17T09:08:05.926Z,83.70
2019-01-17T09:09:05.255Z,83.60
2019-01-17T09:10:05.508Z,83.80
2019-01-17T09:11:05.619Z,83.70
2019-01-17T09:12:08.411Z,83.80
2019-01-17T09:13:05.801Z,83.80
2019-01-17T09:14:06.965Z,83.80
2019-01-17T09:15:07.897Z,83.80
2019-01-17T09:16:06.071Z,83.80
2019-01-17T09:17:05.575Z,83.80
2019-01-17T09:18:05.752Z,83.80
2019-01-17T09:19:05.838Z,83.80
2019-01-17T09:20:08.645Z,83.70
2019-01-17T09:21:05.893Z,83.70
2019-01-17T09:22:08.700Z,83.70
2019-01-17T09:23:05.911Z,83.70
2019-01-17T09:24:07.814Z,83.70
2019-01-17T09:25:05.850Z,83.70
2019-01-17T09:26:08.791Z,83.70
2019-01-17T09:27:05.995Z,83.70
2019-01-17T09:28:05.461Z,83.70
2019-01-17T09:29:08.337Z,83.60
2019-01-17T09:30:05.310Z,83.70
2019-01-17T09:31:05.642Z,83.60
2019-01-17T09:32:06.053Z,83.80
2019-01-17T09:33:05.138Z,83.70
2019-01-17T09:34:08.187Z,83.70
2019-01-17T09:35:08.064Z,83.70
2019-01-17T09:36:05.291Z,83.70
2019-01-17T09:37:05.665Z,83.70
2019-01-17T09:38:05.925Z,83.70
2019-01-17T09:39:06.095Z,83.70
2019-01-17T09:40:05.506Z,83.60
2019-01-17T09:41:05.733Z,83.50
2019-01-17T09:42:08.526Z,83.40
2019-01-17T09:43:06.045Z,83.40
2019-01-17T09:44:05.315Z,83.40
2019-01-17T09:45:05.372Z,83.30
2019-01-17T09:46:05.697Z,83.30
2019-01-17T09:47:08.428Z,83.30
2019-01-17T09:48:13.429Z,83.30
2019-01-17T09:49:05.833Z,83.30
2019-01-17T09:50:08.536Z,83.20
2019-01-17T09:51:05.851Z,83.20
2019-01-17T09:52:06.120Z,83.20
2019-01-17T09:53:08.238Z,83.20
2019-01-17T09:54:07.933Z,83.30
2019-01-17T09:55:05.855Z,83.30
2019-01-17T09:56:06.138Z,83.30
2019-01-17T09:57:08.187Z,83.20
2019-01-17T09:58:10.482Z,83.20
2019-01-17T09:59:05.665Z,83.20
2019-01-17T10:00:06.047Z,83.20
2019-01-17T10:01:05.509Z,83.10
2019-01-17T10:02:05.900Z,83.00
2019-01-17T10:03:06.130Z,82.90
2019-01-17T10:04:05.371Z,82.80
2019-01-17T10:05:08.321Z,82.70
2019-01-17T10:06:08.228Z,82.60
2019-01-17T10:07:05.333Z,82.70
2019-01-17T10:08:08.509Z,82.60
2019-01-17T10:09:06.089Z,82.60
2019-01-17T10:10:05.358Z,82.60
2019-01-17T10:11:05.655Z,82.60
2019-01-17T10:12:06.167Z,82.70
2019-01-17T10:13:08.205Z,82.60
2019-01-17T10:14:08.108Z,82.70
2019-01-17T10:15:05.461Z,82.60
2019-01-17T10:16:05.986Z,82.50
2019-01-17T10:17:05.829Z,82.50
2019-01-17T10:18:11.091Z,82.50
2019-01-17T10:19:05.185Z,82.60
2019-01-17T10:20:06.356Z,82.50
2019-01-17T10:21:05.480Z,82.60
2019-01-17T10:22:05.866Z,82.40
2019-01-17T10:23:05.238Z,82.40
2019-01-17T10:24:05.682Z,82.40
2019-01-17T10:25:05.877Z,82.30
2019-01-17T10:26:06.096Z,82.40
2019-01-17T10:27:05.279Z,82.20
2019-01-17T10:28:05.549Z,82.10
2019-01-17T10:29:05.957Z,82.10
2019-01-17T10:30:05.656Z,82.10
2019-01-17T10:31:08.435Z,82.10
2019-01-17T10:32:05.737Z,82.10
2019-01-17T10:33:08.559Z,82.10
2019-01-17T10:34:11.038Z,82.10
2019-01-17T10:35:07.860Z,82.00
2019-01-17T10:36:05.975Z,82.00
2019-01-17T10:37:05.327Z,81.90
2019-01-17T10:38:05.810Z,81.90
2019-01-17T10:39:06.284Z,81.90
2019-01-17T10:40:05.583Z,81.90
2019-01-17T10:41:06.021Z,81.80
2019-01-17T10:42:07.884Z,81.80
2019-01-17T10:43:08.755Z,81.60
2019-01-17T10:44:08.668Z,81.60
2019-01-17T10:45:11.170Z,81.40
2019-01-17T10:46:05.325Z,81.40
2019-01-17T10:47:05.877Z,81.40
2019-01-17T10:48:06.123Z,81.40
2019-01-17T10:49:05.561Z,81.50
2019-01-17T10:50:11.147Z,81.50
2019-01-17T10:51:07.860Z,82.00
2019-01-17T10:52:06.064Z,81.50
2019-01-17T10:53:07.864Z,81.70
2019-01-17T10:54:08.660Z,81.90
2019-01-17T10:55:06.090Z,81.70
2019-01-17T10:56:05.317Z,81.80
2019-01-17T10:57:08.101Z,81.70
2019-01-17T10:58:07.950Z,81.60
2019-01-17T10:59:06.085Z,81.60
2019-01-17T11:00:07.804Z,81.60
2019-01-17T11:01:08.600Z,81.50
2019-01-17T11:02:05.971Z,81.60
2019-01-17T11:03:09.134Z,81.40
2019-01-17T11:04:05.262Z,81.60
2019-01-17T11:05:08.290Z,81.50
2019-01-17T11:06:05.456Z,81.40
2019-01-17T11:07:06.071Z,81.60
2019-01-17T11:08:05.456Z,81.50
2019-01-17T11:09:08.318Z,81.20
2019-01-17T11:10:08.229Z,81.60
2019-01-17T11:11:07.878Z,81.20
2019-01-17T11:12:08.528Z,81.30
2019-01-17T11:13:05.627Z,81.20
2019-01-17T11:14:05.887Z,81.50
2019-01-17T11:15:08.667Z,81.50
2019-01-17T11:16:05.919Z,81.50
2019-01-17T11:17:06.444Z,81.60
2019-01-17T11:18:05.935Z,81.50
2019-01-17T11:19:05.173Z,81.40
2019-01-17T11:20:05.385Z,81.60
2019-01-17T11:22:08.388Z,81.70
2019-01-17T11:23:05.550Z,81.70
2019-01-17T11:24:07.757Z,81.80
2019-01-17T11:25:08.540Z,81.90
2019-01-17T11:26:08.419Z,81.90
2019-01-17T11:27:05.881Z,81.90
2019-01-17T11:28:06.220Z,82.00
2019-01-17T11:29:05.679Z,82.00
2019-01-17T11:30:05.957Z,82.20
2019-01-17T11:31:05.338Z,82.20
2019-01-17T11:32:08.271Z,82.20
2019-01-17T11:33:08.069Z,82.20
2019-01-17T11:34:07.925Z,82.30
2019-01-17T11:35:08.744Z,82.30
2019-01-17T11:36:08.455Z,82.30
2019-01-17T11:37:05.780Z,82.30
2019-01-17T11:38:07.925Z,82.30
2019-01-17T11:39:08.584Z,82.30
2019-01-17T11:40:08.568Z,82.20
2019-01-17T11:41:05.959Z,82.30
2019-01-17T11:42:05.265Z,82.20
2019-01-17T11:43:08.716Z,82.20
2019-01-17T11:44:08.506Z,82.20
2019-01-17T11:45:08.584Z,82.10
2019-01-17T11:46:08.411Z,82.00
2019-01-17T11:47:05.673Z,82.00
2019-01-17T11:48:08.655Z,81.80
2019-01-17T11:49:05.856Z,81.80
2019-01-17T11:50:06.120Z,81.60
2019-01-17T11:51:05.474Z,81.50
2019-01-17T11:52:05.914Z,81.40
2019-01-17T11:53:06.105Z,81.40
2019-01-17T11:54:08.049Z,81.40
2019-01-17T11:55:07.800Z,81.40
2019-01-17T11:56:05.851Z,81.40
2019-01-17T11:57:06.306Z,81.40
2019-01-17T11:58:05.626Z,81.50
2019-01-17T11:59:08.487Z,81.50
2019-01-17T12:00:05.652Z,81.50
2019-01-17T12:01:06.251Z,81.50
2019-01-17T12:02:05.614Z,81.50
2019-01-17T12:03:05.818Z,81.50
2019-01-17T12:04:06.002Z,81.40
2019-01-17T12:05:07.958Z,81.30
2019-01-17T12:06:06.163Z,81.30
2019-01-17T12:07:05.564Z,81.30
2019-01-17T12:08:08.365Z,81.20
2019-01-17T12:09:08.177Z,81.10
2019-01-17T12:10:05.434Z,81.10
2019-01-17T12:11:10.881Z,81.00
2019-01-17T12:12:06.053Z,81.00
2019-01-17T12:13:05.424Z,81.00
2019-01-17T12:14:08.474Z,81.00
2019-01-17T12:15:08.312Z,80.90
2019-01-17T12:16:07.909Z,80.90
2019-01-17T12:17:06.199Z,80.90
2019-01-17T12:18:05.449Z,81.00
2019-01-17T12:19:10.968Z,81.10
2019-01-17T12:20:07.641Z,81.10
2019-01-17T12:21:05.958Z,81.10
2019-01-17T12:22:08.101Z,81.00
2019-01-17T12:23:07.718Z,81.00
2019-01-17T12:24:06.245Z,81.00
2019-01-17T12:25:08.101Z,80.70
2019-01-17T12:26:07.813Z,80.60
2019-01-17T12:27:06.066Z,80.50
2019-01-17T12:28:05.398Z,80.30
2019-01-17T12:29:08.382Z,80.20
2019-01-17T12:30:08.306Z,80.20
2019-01-17T12:31:05.593Z,80.30
2019-01-17T12:32:05.930Z,80.10
2019-01-17T12:33:12.889Z,80.00
2019-01-17T12:34:16.111Z,80.30
2019-01-17T12:35:10.371Z,80.20
2019-01-17T12:36:05.460Z,80.20
2019-01-17T12:37:05.627Z,80.20
2019-01-17T12:38:06.043Z,80.20
2019-01-17T12:39:05.327Z,80.10
2019-01-17T12:40:06.026Z,80.10
2019-01-17T12:41:07.727Z,80.10
2019-01-17T12:42:05.990Z,80.10
2019-01-17T12:43:05.278Z,80.10
2019-01-17T12:44:10.615Z,80.10
2019-01-17T12:45:08.179Z,80.10
2019-01-17T12:46:07.750Z,80.10
2019-01-17T12:47:05.879Z,80.10
2019-01-17T12:48:10.392Z,80.10
2019-01-17T12:49:08.377Z,79.90
2019-01-17T12:50:08.194Z,79.70
2019-01-17T12:51:07.767Z,79.70
2019-01-17T12:52:06.171Z,79.70
2019-01-17T12:53:05.336Z,79.80